sensor_id;sensor_type;location;lat;lon;timestamp;P1;durP1;ratioP1;P2;durP2;ratioP2
10096;SDS011;5087;42.662;23.466;2022-09-03T00:01:24;0.00;;;0.00;;
10096;SDS011;5087;42.662;23.466;2022-09-03T00:04:01;0.00;;;0.00;;
10096;SDS011;5087;42.662;23.466;2022-09-03T00:06:38;0.10;;;0.10;;
10096;SDS011;5087;42.662;23.466;2022-09-03T00:09:11;0.10;;;0.10;;
10096;SDS011;5087;42.662;23.466;2022-09-03T00:11:45;0.00;;;0.00;;
10096;SDS011;5087;42.662;23.466;2022-09-03T00:14:18;0.00;;;0.00;;
10096;SDS011;5087;42.662;23.466;2022-09-03T00:16:49;0.10;;;0.10;;
10096;SDS011;5087;42.662;23.466;2022-09-03T00:19:20;0.00;;;0.00;;
10096;SDS011;5087;42.662;23.466;2022-09-03T00:21:54;0.00;;;0.00;;
10096;SDS011;5087;42.662;23.466;2022-09-03T00:24:27;0.00;;;0.00;;
10096;SDS011;5087;42.662;23.466;2022-09-03T00:26:59;0.00;;;0.00;;
10096;SDS011;5087;42.662;23.466;2022-09-03T00:29:30;0.00;;;0.00;;
10096;SDS011;5087;42.662;23.466;2022-09-03T00:32:02;0.10;;;0.10;;
10096;SDS011;5087;42.662;23.466;2022-09-03T00:34:35;0.10;;;0.10;;
10096;SDS011;5087;42.662;23.466;2022-09-03T00:37:08;0.10;;;0.10;;
10096;SDS011;5087;42.662;23.466;2022-09-03T00:39:36;0.00;;;0.00;;
10096;SDS011;5087;42.662;23.466;2022-09-03T00:42:08;0.10;;;0.10;;
10096;SDS011;5087;42.662;23.466;2022-09-03T00:45:01;0.10;;;0.10;;
10096;SDS011;5087;42.662;23.466;2022-09-03T00:47:38;0.00;;;0.00;;
10096;SDS011;5087;42.662;23.466;2022-09-03T00:50:14;0.00;;;0.00;;
10096;SDS011;5087;42.662;23.466;2022-09-03T00:52:52;0.00;;;0.00;;
10096;SDS011;5087;42.662;23.466;2022-09-03T00:55:32;0.00;;;0.00;;
10096;SDS011;5087;42.662;23.466;2022-09-03T00:58:09;0.00;;;0.00;;
10096;SDS011;5087;42.662;23.466;2022-09-03T01:00:45;0.10;;;0.10;;
10096;SDS011;5087;42.662;23.466;2022-09-03T01:03:13;0.00;;;0.00;;
10096;SDS011;5087;42.662;23.466;2022-09-03T01:05:52;0.00;;;0.00;;
10096;SDS011;5087;42.662;23.466;2022-09-03T01:11:27;0.10;;;0.10;;
10096;SDS011;5087;42.662;23.466;2022-09-03T01:14:08;0.00;;;0.00;;
10096;SDS011;5087;42.662;23.466;2022-09-03T01:16:46;0.10;;;0.10;;
10096;SDS011;5087;42.662;23.466;2022-09-03T01:22:26;0.00;;;0.00;;
10096;SDS011;5087;42.662;23.466;2022-09-03T01:25:16;0.00;;;0.00;;
10096;SDS011;5087;42.662;23.466;2022-09-03T01:28:01;0.00;;;0.00;;
10096;SDS011;5087;42.662;23.466;2022-09-03T01:30:41;0.00;;;0.00;;
10096;SDS011;5087;42.662;23.466;2022-09-03T01:33:15;0.00;;;0.00;;
10096;SDS011;5087;42.662;23.466;2022-09-03T01:35:47;0.30;;;0.30;;
10096;SDS011;5087;42.662;23.466;2022-09-03T01:38:23;0.00;;;0.00;;
10096;SDS011;5087;42.662;23.466;2022-09-03T01:40:58;0.00;;;0.00;;
10096;SDS011;5087;42.662;23.466;2022-09-03T01:43:48;0.00;;;0.00;;
10096;SDS011;5087;42.662;23.466;2022-09-03T01:46:22;0.00;;;0.00;;
10096;SDS011;5087;42.662;23.466;2022-09-03T01:48:52;0.00;;;0.00;;
10096;SDS011;5087;42.662;23.466;2022-09-03T01:51:32;0.00;;;0.00;;
10096;SDS011;5087;42.662;23.466;2022-09-03T01:54:08;0.00;;;0.00;;
10096;SDS011;5087;42.662;23.466;2022-09-03T01:59:54;0.00;;;0.00;;
10096;SDS011;5087;42.662;23.466;2022-09-03T02:02:26;0.00;;;0.00;;
10096;SDS011;5087;42.662;23.466;2022-09-03T02:04:58;0.00;;;0.00;;
10096;SDS011;5087;42.662;23.466;2022-09-03T02:07:29;0.00;;;0.00;;
10096;SDS011;5087;42.662;23.466;2022-09-03T02:09:59;0.00;;;0.00;;
10096;SDS011;5087;42.662;23.466;2022-09-03T02:12:27;0.00;;;0.00;;
10096;SDS011;5087;42.662;23.466;2022-09-03T02:15:00;0.00;;;0.00;;
10096;SDS011;5087;42.662;23.466;2022-09-03T02:17:31;0.10;;;0.10;;
10096;SDS011;5087;42.662;23.466;2022-09-03T02:20:00;0.00;;;0.00;;
10096;SDS011;5087;42.662;23.466;2022-09-03T02:22:31;0.00;;;0.00;;
10096;SDS011;5087;42.662;23.466;2022-09-03T02:24:59;0.83;;;0.57;;
10096;SDS011;5087;42.662;23.466;2022-09-03T02:27:26;0.00;;;0.00;;
10096;SDS011;5087;42.662;23.466;2022-09-03T02:29:54;0.00;;;0.00;;
10096;SDS011;5087;42.662;23.466;2022-09-03T02:32:24;0.00;;;0.00;;
10096;SDS011;5087;42.662;23.466;2022-09-03T02:34:51;0.60;;;0.60;;
10096;SDS011;5087;42.662;23.466;2022-09-03T02:37:18;0.00;;;0.00;;
10096;SDS011;5087;42.662;23.466;2022-09-03T02:39:46;0.00;;;0.00;;
10096;SDS011;5087;42.662;23.466;2022-09-03T02:42:13;0.10;;;0.10;;
10096;SDS011;5087;42.662;23.466;2022-09-03T02:44:43;0.00;;;0.00;;
10096;SDS011;5087;42.662;23.466;2022-09-03T02:47:14;0.10;;;0.10;;
10096;SDS011;5087;42.662;23.466;2022-09-03T02:49:46;0.00;;;0.00;;
10096;SDS011;5087;42.662;23.466;2022-09-03T02:52:14;0.00;;;0.00;;
10096;SDS011;5087;42.662;23.466;2022-09-03T02:54:42;0.10;;;0.10;;
10096;SDS011;5087;42.662;23.466;2022-09-03T02:57:10;0.10;;;0.10;;
10096;SDS011;5087;42.662;23.466;2022-09-03T02:59:39;0.00;;;0.00;;
10096;SDS011;5087;42.662;23.466;2022-09-03T03:02:08;0.10;;;0.10;;
10096;SDS011;5087;42.662;23.466;2022-09-03T03:04:36;0.00;;;0.00;;
10096;SDS011;5087;42.662;23.466;2022-09-03T03:07:06;0.00;;;0.00;;
10096;SDS011;5087;42.662;23.466;2022-09-03T03:09:33;0.00;;;0.00;;
10096;SDS011;5087;42.662;23.466;2022-09-03T03:12:00;0.00;;;0.00;;
10096;SDS011;5087;42.662;23.466;2022-09-03T03:14:28;0.00;;;0.00;;
10096;SDS011;5087;42.662;23.466;2022-09-03T03:16:55;0.00;;;0.00;;
10096;SDS011;5087;42.662;23.466;2022-09-03T03:19:22;0.00;;;0.00;;
10096;SDS011;5087;42.662;23.466;2022-09-03T03:21:49;0.00;;;0.00;;
10096;SDS011;5087;42.662;23.466;2022-09-03T03:24:20;0.00;;;0.00;;
10096;SDS011;5087;42.662;23.466;2022-09-03T03:26:48;3.30;;;1.40;;
10096;SDS011;5087;42.662;23.466;2022-09-03T03:29:15;0.00;;;0.00;;
10096;SDS011;5087;42.662;23.466;2022-09-03T03:31:43;0.10;;;0.10;;
10096;SDS011;5087;42.662;23.466;2022-09-03T03:34:10;0.00;;;0.00;;
10096;SDS011;5087;42.662;23.466;2022-09-03T03:36:37;0.00;;;0.00;;
10096;SDS011;5087;42.662;23.466;2022-09-03T03:39:05;0.00;;;0.00;;
10096;SDS011;5087;42.662;23.466;2022-09-03T03:41:34;0.00;;;0.00;;
10096;SDS011;5087;42.662;23.466;2022-09-03T03:44:02;0.00;;;0.00;;
10096;SDS011;5087;42.662;23.466;2022-09-03T03:46:31;1.70;;;0.37;;
10096;SDS011;5087;42.662;23.466;2022-09-03T03:48:59;0.00;;;0.00;;
10096;SDS011;5087;42.662;23.466;2022-09-03T03:51:27;0.00;;;0.00;;
10096;SDS011;5087;42.662;23.466;2022-09-03T03:53:55;0.00;;;0.00;;
10096;SDS011;5087;42.662;23.466;2022-09-03T03:56:23;0.00;;;0.00;;
10096;SDS011;5087;42.662;23.466;2022-09-03T03:58:53;0.00;;;0.00;;
10096;SDS011;5087;42.662;23.466;2022-09-03T04:01:21;0.00;;;0.00;;
10096;SDS011;5087;42.662;23.466;2022-09-03T04:03:49;0.00;;;0.00;;
10096;SDS011;5087;42.662;23.466;2022-09-03T04:06:17;0.00;;;0.00;;
10096;SDS011;5087;42.662;23.466;2022-09-03T04:08:46;0.00;;;0.00;;
10096;SDS011;5087;42.662;23.466;2022-09-03T04:11:15;0.00;;;0.00;;
10096;SDS011;5087;42.662;23.466;2022-09-03T04:13:44;0.00;;;0.00;;
10096;SDS011;5087;42.662;23.466;2022-09-03T04:16:15;0.00;;;0.00;;
10096;SDS011;5087;42.662;23.466;2022-09-03T04:18:44;0.00;;;0.00;;
10096;SDS011;5087;42.662;23.466;2022-09-03T04:21:13;0.00;;;0.00;;
10096;SDS011;5087;42.662;23.466;2022-09-03T04:23:43;0.00;;;0.00;;
10096;SDS011;5087;42.662;23.466;2022-09-03T04:26:13;0.00;;;0.00;;
10096;SDS011;5087;42.662;23.466;2022-09-03T04:28:42;0.00;;;0.00;;
10096;SDS011;5087;42.662;23.466;2022-09-03T04:31:10;0.00;;;0.00;;
10096;SDS011;5087;42.662;23.466;2022-09-03T04:33:40;0.00;;;0.00;;
10096;SDS011;5087;42.662;23.466;2022-09-03T04:36:08;0.00;;;0.00;;
10096;SDS011;5087;42.662;23.466;2022-09-03T04:38:37;0.00;;;0.00;;
10096;SDS011;5087;42.662;23.466;2022-09-03T04:41:06;0.00;;;0.00;;
10096;SDS011;5087;42.662;23.466;2022-09-03T04:43:35;0.73;;;0.73;;
10096;SDS011;5087;42.662;23.466;2022-09-03T04:46:02;0.00;;;0.00;;
10096;SDS011;5087;42.662;23.466;2022-09-03T04:48:32;0.23;;;0.23;;
10096;SDS011;5087;42.662;23.466;2022-09-03T04:51:02;0.00;;;0.00;;
10096;SDS011;5087;42.662;23.466;2022-09-03T04:53:31;0.00;;;0.00;;
10096;SDS011;5087;42.662;23.466;2022-09-03T04:55:59;0.00;;;0.00;;
10096;SDS011;5087;42.662;23.466;2022-09-03T04:58:27;0.00;;;0.00;;
10096;SDS011;5087;42.662;23.466;2022-09-03T05:00:54;0.10;;;0.10;;
10096;SDS011;5087;42.662;23.466;2022-09-03T05:03:21;0.00;;;0.00;;
10096;SDS011;5087;42.662;23.466;2022-09-03T05:05:52;0.00;;;0.00;;
10096;SDS011;5087;42.662;23.466;2022-09-03T05:08:21;0.00;;;0.00;;
10096;SDS011;5087;42.662;23.466;2022-09-03T05:10:48;0.00;;;0.00;;
10096;SDS011;5087;42.662;23.466;2022-09-03T05:13:16;0.00;;;0.00;;
10096;SDS011;5087;42.662;23.466;2022-09-03T05:15:43;0.00;;;0.00;;
10096;SDS011;5087;42.662;23.466;2022-09-03T05:18:11;0.00;;;0.00;;
10096;SDS011;5087;42.662;23.466;2022-09-03T05:20:38;0.00;;;0.00;;
10096;SDS011;5087;42.662;23.466;2022-09-03T05:23:05;0.00;;;0.00;;
10096;SDS011;5087;42.662;23.466;2022-09-03T05:25:34;0.00;;;0.00;;
10096;SDS011;5087;42.662;23.466;2022-09-03T05:28:02;0.00;;;0.00;;
10096;SDS011;5087;42.662;23.466;2022-09-03T05:30:29;0.00;;;0.00;;
10096;SDS011;5087;42.662;23.466;2022-09-03T05:32:57;0.00;;;0.00;;
10096;SDS011;5087;42.662;23.466;2022-09-03T05:35:24;0.00;;;0.00;;
10096;SDS011;5087;42.662;23.466;2022-09-03T05:37:53;0.00;;;0.00;;
10096;SDS011;5087;42.662;23.466;2022-09-03T05:40:21;0.00;;;0.00;;
10096;SDS011;5087;42.662;23.466;2022-09-03T05:42:54;0.00;;;0.00;;
10096;SDS011;5087;42.662;23.466;2022-09-03T05:45:23;0.00;;;0.00;;
10096;SDS011;5087;42.662;23.466;2022-09-03T05:47:51;0.10;;;0.10;;
10096;SDS011;5087;42.662;23.466;2022-09-03T05:50:18;0.07;;;0.07;;
10096;SDS011;5087;42.662;23.466;2022-09-03T05:52:45;0.00;;;0.00;;
10096;SDS011;5087;42.662;23.466;2022-09-03T05:55:13;0.00;;;0.00;;
10096;SDS011;5087;42.662;23.466;2022-09-03T05:57:40;0.00;;;0.00;;
10096;SDS011;5087;42.662;23.466;2022-09-03T06:00:10;0.00;;;0.00;;
10096;SDS011;5087;42.662;23.466;2022-09-03T06:02:38;0.00;;;0.00;;
10096;SDS011;5087;42.662;23.466;2022-09-03T06:05:06;0.00;;;0.00;;
10096;SDS011;5087;42.662;23.466;2022-09-03T06:07:34;0.00;;;0.00;;
10096;SDS011;5087;42.662;23.466;2022-09-03T06:10:02;0.00;;;0.00;;
10096;SDS011;5087;42.662;23.466;2022-09-03T06:12:31;0.10;;;0.10;;
10096;SDS011;5087;42.662;23.466;2022-09-03T06:14:59;0.00;;;0.00;;
10096;SDS011;5087;42.662;23.466;2022-09-03T06:17:28;0.10;;;0.10;;
10096;SDS011;5087;42.662;23.466;2022-09-03T06:19:55;0.10;;;0.10;;
10096;SDS011;5087;42.662;23.466;2022-09-03T06:22:22;0.33;;;0.33;;
10096;SDS011;5087;42.662;23.466;2022-09-03T06:24:52;0.10;;;0.10;;
10096;SDS011;5087;42.662;23.466;2022-09-03T06:27:19;0.10;;;0.10;;
10096;SDS011;5087;42.662;23.466;2022-09-03T06:29:47;0.17;;;0.17;;
10096;SDS011;5087;42.662;23.466;2022-09-03T06:32:14;10.83;;;0.93;;
10096;SDS011;5087;42.662;23.466;2022-09-03T06:34:43;0.10;;;0.10;;
10096;SDS011;5087;42.662;23.466;2022-09-03T06:37:10;0.10;;;0.10;;
10096;SDS011;5087;42.662;23.466;2022-09-03T06:39:38;1.20;;;0.97;;
10096;SDS011;5087;42.662;23.466;2022-09-03T06:42:05;0.10;;;0.10;;
10096;SDS011;5087;42.662;23.466;2022-09-03T06:44:35;0.10;;;0.10;;
10096;SDS011;5087;42.662;23.466;2022-09-03T06:47:03;3.10;;;1.90;;
10096;SDS011;5087;42.662;23.466;2022-09-03T06:49:30;0.30;;;0.30;;
10096;SDS011;5087;42.662;23.466;2022-09-03T06:51:59;0.20;;;0.20;;
10096;SDS011;5087;42.662;23.466;2022-09-03T06:54:26;0.10;;;0.10;;
10096;SDS011;5087;42.662;23.466;2022-09-03T06:56:53;0.20;;;0.20;;
10096;SDS011;5087;42.662;23.466;2022-09-03T06:59:22;0.20;;;0.20;;
10096;SDS011;5087;42.662;23.466;2022-09-03T07:01:49;0.53;;;0.53;;
10096;SDS011;5087;42.662;23.466;2022-09-03T07:04:16;0.10;;;0.10;;
10096;SDS011;5087;42.662;23.466;2022-09-03T07:06:44;0.20;;;0.20;;
10096;SDS011;5087;42.662;23.466;2022-09-03T07:09:13;0.20;;;0.20;;
10096;SDS011;5087;42.662;23.466;2022-09-03T07:11:42;0.20;;;0.20;;
10096;SDS011;5087;42.662;23.466;2022-09-03T07:14:12;0.30;;;0.30;;
10096;SDS011;5087;42.662;23.466;2022-09-03T07:16:39;0.20;;;0.20;;
10096;SDS011;5087;42.662;23.466;2022-09-03T07:19:08;0.20;;;0.20;;
10096;SDS011;5087;42.662;23.466;2022-09-03T07:21:38;0.30;;;0.30;;
10096;SDS011;5087;42.662;23.466;2022-09-03T07:24:06;0.30;;;0.30;;
10096;SDS011;5087;42.662;23.466;2022-09-03T07:26:37;0.30;;;0.30;;
10096;SDS011;5087;42.662;23.466;2022-09-03T07:29:08;0.30;;;0.30;;
10096;SDS011;5087;42.662;23.466;2022-09-03T07:31:36;0.30;;;0.30;;
10096;SDS011;5087;42.662;23.466;2022-09-03T07:34:06;0.30;;;0.30;;
10096;SDS011;5087;42.662;23.466;2022-09-03T07:36:36;0.40;;;0.40;;
10096;SDS011;5087;42.662;23.466;2022-09-03T07:39:06;0.40;;;0.40;;
10096;SDS011;5087;42.662;23.466;2022-09-03T07:41:33;0.40;;;0.40;;
10096;SDS011;5087;42.662;23.466;2022-09-03T07:44:02;0.50;;;0.50;;
10096;SDS011;5087;42.662;23.466;2022-09-03T07:46:31;0.50;;;0.50;;
10096;SDS011;5087;42.662;23.466;2022-09-03T07:49:01;0.60;;;0.60;;
10096;SDS011;5087;42.662;23.466;2022-09-03T07:51:31;0.50;;;0.50;;
10096;SDS011;5087;42.662;23.466;2022-09-03T07:54:00;0.60;;;0.60;;
10096;SDS011;5087;42.662;23.466;2022-09-03T07:56:31;0.60;;;0.60;;
10096;SDS011;5087;42.662;23.466;2022-09-03T07:59:00;0.70;;;0.70;;
10096;SDS011;5087;42.662;23.466;2022-09-03T08:01:29;1.00;;;1.00;;
10096;SDS011;5087;42.662;23.466;2022-09-03T08:03:58;1.13;;;1.13;;
10096;SDS011;5087;42.662;23.466;2022-09-03T08:06:27;0.80;;;0.80;;
10096;SDS011;5087;42.662;23.466;2022-09-03T08:08:56;1.10;;;1.10;;
10096;SDS011;5087;42.662;23.466;2022-09-03T08:11:24;1.00;;;1.00;;
10096;SDS011;5087;42.662;23.466;2022-09-03T08:13:53;1.23;;;1.23;;
10096;SDS011;5087;42.662;23.466;2022-09-03T08:16:27;1.20;;;1.20;;
10096;SDS011;5087;42.662;23.466;2022-09-03T08:18:56;1.10;;;1.10;;
10096;SDS011;5087;42.662;23.466;2022-09-03T08:21:23;1.17;;;1.17;;
10096;SDS011;5087;42.662;23.466;2022-09-03T08:23:52;1.00;;;1.00;;
10096;SDS011;5087;42.662;23.466;2022-09-03T08:26:27;1.40;;;1.40;;
10096;SDS011;5087;42.662;23.466;2022-09-03T08:28:55;1.30;;;1.30;;
10096;SDS011;5087;42.662;23.466;2022-09-03T08:31:23;1.40;;;1.40;;
10096;SDS011;5087;42.662;23.466;2022-09-03T08:33:54;1.30;;;1.30;;
10096;SDS011;5087;42.662;23.466;2022-09-03T08:36:22;1.80;;;1.80;;
10096;SDS011;5087;42.662;23.466;2022-09-03T08:38:51;1.50;;;1.50;;
10096;SDS011;5087;42.662;23.466;2022-09-03T08:41:23;1.57;;;1.57;;
10096;SDS011;5087;42.662;23.466;2022-09-03T08:44:07;2.13;;;2.13;;
10096;SDS011;5087;42.662;23.466;2022-09-03T08:46:43;2.10;;;2.10;;
10096;SDS011;5087;42.662;23.466;2022-09-03T08:49:18;2.20;;;2.20;;
10096;SDS011;5087;42.662;23.466;2022-09-03T08:51:50;2.93;;;2.93;;
10096;SDS011;5087;42.662;23.466;2022-09-03T08:54:20;3.43;;;3.43;;
10096;SDS011;5087;42.662;23.466;2022-09-03T08:56:52;2.30;;;2.30;;
10096;SDS011;5087;42.662;23.466;2022-09-03T08:59:21;1.40;;;1.40;;
10096;SDS011;5087;42.662;23.466;2022-09-03T09:01:50;4.67;;;4.57;;
10096;SDS011;5087;42.662;23.466;2022-09-03T09:04:31;3.13;;;3.13;;
10096;SDS011;5087;42.662;23.466;2022-09-03T09:07:12;2.03;;;2.03;;
10096;SDS011;5087;42.662;23.466;2022-09-03T09:09:44;2.63;;;2.63;;
10096;SDS011;5087;42.662;23.466;2022-09-03T09:12:22;2.97;;;2.97;;
10096;SDS011;5087;42.662;23.466;2022-09-03T09:15:03;2.37;;;2.37;;
10096;SDS011;5087;42.662;23.466;2022-09-03T09:17:39;1.10;;;1.10;;
10096;SDS011;5087;42.662;23.466;2022-09-03T09:20:29;1.00;;;1.00;;
10096;SDS011;5087;42.662;23.466;2022-09-03T09:23:03;0.90;;;0.90;;
10096;SDS011;5087;42.662;23.466;2022-09-03T09:25:33;0.90;;;0.90;;
10096;SDS011;5087;42.662;23.466;2022-09-03T09:28:11;0.90;;;0.90;;
10096;SDS011;5087;42.662;23.466;2022-09-03T09:30:44;0.90;;;0.90;;
10096;SDS011;5087;42.662;23.466;2022-09-03T09:33:13;1.00;;;1.00;;
10096;SDS011;5087;42.662;23.466;2022-09-03T09:35:43;0.97;;;0.97;;
10096;SDS011;5087;42.662;23.466;2022-09-03T09:38:14;0.90;;;0.90;;
10096;SDS011;5087;42.662;23.466;2022-09-03T09:41:06;1.00;;;1.00;;
10096;SDS011;5087;42.662;23.466;2022-09-03T09:43:35;1.10;;;1.10;;
10096;SDS011;5087;42.662;23.466;2022-09-03T09:46:08;0.90;;;0.90;;
10096;SDS011;5087;42.662;23.466;2022-09-03T09:48:46;1.00;;;1.00;;
10096;SDS011;5087;42.662;23.466;2022-09-03T09:51:20;1.00;;;1.00;;
10096;SDS011;5087;42.662;23.466;2022-09-03T09:53:59;1.00;;;1.00;;
10096;SDS011;5087;42.662;23.466;2022-09-03T09:56:28;0.93;;;0.93;;
10096;SDS011;5087;42.662;23.466;2022-09-03T09:59:03;0.90;;;0.90;;
10096;SDS011;5087;42.662;23.466;2022-09-03T10:01:32;0.97;;;0.97;;
10096;SDS011;5087;42.662;23.466;2022-09-03T10:04:19;0.90;;;0.90;;
10096;SDS011;5087;42.662;23.466;2022-09-03T10:06:56;1.00;;;1.00;;
10096;SDS011;5087;42.662;23.466;2022-09-03T10:09:29;1.07;;;1.07;;
10096;SDS011;5087;42.662;23.466;2022-09-03T10:12:02;1.00;;;1.00;;
10096;SDS011;5087;42.662;23.466;2022-09-03T10:14:41;1.00;;;1.00;;
10096;SDS011;5087;42.662;23.466;2022-09-03T10:17:17;1.00;;;1.00;;
10096;SDS011;5087;42.662;23.466;2022-09-03T10:19:54;1.00;;;1.00;;
10096;SDS011;5087;42.662;23.466;2022-09-03T10:23:16;1.00;;;1.00;;
10096;SDS011;5087;42.662;23.466;2022-09-03T10:26:00;1.10;;;1.10;;
10096;SDS011;5087;42.662;23.466;2022-09-03T10:28:55;1.10;;;1.10;;
10096;SDS011;5087;42.662;23.466;2022-09-03T10:31:28;1.00;;;1.00;;
10096;SDS011;5087;42.662;23.466;2022-09-03T10:34:12;1.00;;;1.00;;
10096;SDS011;5087;42.662;23.466;2022-09-03T10:36:45;1.10;;;1.10;;
10096;SDS011;5087;42.662;23.466;2022-09-03T10:39:22;1.10;;;1.10;;
10096;SDS011;5087;42.662;23.466;2022-09-03T10:42:02;1.10;;;1.10;;
10096;SDS011;5087;42.662;23.466;2022-09-03T10:44:47;1.10;;;1.10;;
10096;SDS011;5087;42.662;23.466;2022-09-03T10:47:36;1.10;;;1.10;;
10096;SDS011;5087;42.662;23.466;2022-09-03T10:50:29;1.10;;;1.10;;
10096;SDS011;5087;42.662;23.466;2022-09-03T10:53:17;1.20;;;1.20;;
10096;SDS011;5087;42.662;23.466;2022-09-03T10:55:57;1.20;;;1.20;;
10096;SDS011;5087;42.662;23.466;2022-09-03T10:58:31;1.20;;;1.20;;
10096;SDS011;5087;42.662;23.466;2022-09-03T11:01:11;1.00;;;1.00;;
10096;SDS011;5087;42.662;23.466;2022-09-03T11:03:47;1.00;;;1.00;;
10096;SDS011;5087;42.662;23.466;2022-09-03T11:06:33;1.17;;;1.17;;
10096;SDS011;5087;42.662;23.466;2022-09-03T11:09:12;1.10;;;1.10;;
10096;SDS011;5087;42.662;23.466;2022-09-03T11:11:47;1.10;;;1.10;;
10096;SDS011;5087;42.662;23.466;2022-09-03T11:14:26;1.20;;;1.20;;
10096;SDS011;5087;42.662;23.466;2022-09-03T11:16:59;1.13;;;1.13;;
10096;SDS011;5087;42.662;23.466;2022-09-03T11:19:32;1.10;;;1.10;;
10096;SDS011;5087;42.662;23.466;2022-09-03T11:22:04;1.10;;;1.10;;
10096;SDS011;5087;42.662;23.466;2022-09-03T11:24:39;1.00;;;1.00;;
10096;SDS011;5087;42.662;23.466;2022-09-03T11:27:16;1.10;;;1.10;;
10096;SDS011;5087;42.662;23.466;2022-09-03T11:30:04;1.10;;;1.10;;
10096;SDS011;5087;42.662;23.466;2022-09-03T11:32:39;1.10;;;1.10;;
10096;SDS011;5087;42.662;23.466;2022-09-03T11:35:26;1.10;;;1.10;;
10096;SDS011;5087;42.662;23.466;2022-09-03T11:37:57;1.10;;;1.10;;
10096;SDS011;5087;42.662;23.466;2022-09-03T11:40:33;1.40;;;1.40;;
10096;SDS011;5087;42.662;23.466;2022-09-03T11:43:09;1.70;;;1.70;;
10096;SDS011;5087;42.662;23.466;2022-09-03T11:45:42;1.00;;;1.00;;
10096;SDS011;5087;42.662;23.466;2022-09-03T11:48:17;1.00;;;1.00;;
10096;SDS011;5087;42.662;23.466;2022-09-03T11:51:17;1.10;;;1.10;;
10096;SDS011;5087;42.662;23.466;2022-09-03T11:53:57;1.10;;;1.10;;
10096;SDS011;5087;42.662;23.466;2022-09-03T11:56:26;1.00;;;1.00;;
10096;SDS011;5087;42.662;23.466;2022-09-03T11:59:14;1.00;;;1.00;;
10096;SDS011;5087;42.662;23.466;2022-09-03T12:01:46;0.90;;;0.90;;
10096;SDS011;5087;42.662;23.466;2022-09-03T12:04:20;1.00;;;1.00;;
10096;SDS011;5087;42.662;23.466;2022-09-03T12:06:58;0.90;;;0.90;;
10096;SDS011;5087;42.662;23.466;2022-09-03T12:09:49;1.07;;;1.07;;
10096;SDS011;5087;42.662;23.466;2022-09-03T12:12:39;1.10;;;1.10;;
10096;SDS011;5087;42.662;23.466;2022-09-03T12:15:24;1.10;;;1.10;;
10096;SDS011;5087;42.662;23.466;2022-09-03T12:18:04;1.00;;;1.00;;
10096;SDS011;5087;42.662;23.466;2022-09-03T12:20:59;1.10;;;1.10;;
10096;SDS011;5087;42.662;23.466;2022-09-03T12:23:28;0.90;;;0.90;;
10096;SDS011;5087;42.662;23.466;2022-09-03T12:25:58;1.03;;;1.03;;
10096;SDS011;5087;42.662;23.466;2022-09-03T12:28:34;1.00;;;1.00;;
10096;SDS011;5087;42.662;23.466;2022-09-03T12:31:08;1.00;;;1.00;;
10096;SDS011;5087;42.662;23.466;2022-09-03T12:33:46;0.90;;;0.90;;
10096;SDS011;5087;42.662;23.466;2022-09-03T12:36:16;1.00;;;1.00;;
10096;SDS011;5087;42.662;23.466;2022-09-03T12:38:47;1.00;;;1.00;;
10096;SDS011;5087;42.662;23.466;2022-09-03T12:41:22;1.00;;;1.00;;
10096;SDS011;5087;42.662;23.466;2022-09-03T12:43:52;1.00;;;1.00;;
10096;SDS011;5087;42.662;23.466;2022-09-03T12:46:23;0.90;;;0.90;;
10096;SDS011;5087;42.662;23.466;2022-09-03T12:48:52;0.90;;;0.90;;
10096;SDS011;5087;42.662;23.466;2022-09-03T12:51:30;0.90;;;0.90;;
10096;SDS011;5087;42.662;23.466;2022-09-03T12:53:58;0.90;;;0.90;;
10096;SDS011;5087;42.662;23.466;2022-09-03T12:56:26;0.90;;;0.90;;
10096;SDS011;5087;42.662;23.466;2022-09-03T12:58:58;0.80;;;0.80;;
10096;SDS011;5087;42.662;23.466;2022-09-03T13:01:35;0.80;;;0.80;;
10096;SDS011;5087;42.662;23.466;2022-09-03T13:04:09;0.80;;;0.80;;
10096;SDS011;5087;42.662;23.466;2022-09-03T13:06:46;0.90;;;0.90;;
10096;SDS011;5087;42.662;23.466;2022-09-03T13:09:18;0.90;;;0.90;;
10096;SDS011;5087;42.662;23.466;2022-09-03T13:11:48;1.00;;;1.00;;
10096;SDS011;5087;42.662;23.466;2022-09-03T13:14:18;0.90;;;0.90;;
10096;SDS011;5087;42.662;23.466;2022-09-03T13:17:01;0.80;;;0.80;;
10096;SDS011;5087;42.662;23.466;2022-09-03T13:19:41;0.93;;;0.93;;
10096;SDS011;5087;42.662;23.466;2022-09-03T13:22:22;0.80;;;0.80;;
10096;SDS011;5087;42.662;23.466;2022-09-03T13:25:02;0.90;;;0.90;;
10096;SDS011;5087;42.662;23.466;2022-09-03T13:27:41;0.90;;;0.90;;
10096;SDS011;5087;42.662;23.466;2022-09-03T13:30:12;0.90;;;0.90;;
10096;SDS011;5087;42.662;23.466;2022-09-03T13:32:49;0.80;;;0.80;;
10096;SDS011;5087;42.662;23.466;2022-09-03T13:35:29;0.80;;;0.80;;
10096;SDS011;5087;42.662;23.466;2022-09-03T13:38:04;0.90;;;0.90;;
10096;SDS011;5087;42.662;23.466;2022-09-03T13:40:42;0.80;;;0.80;;
10096;SDS011;5087;42.662;23.466;2022-09-03T13:43:19;0.80;;;0.80;;
10096;SDS011;5087;42.662;23.466;2022-09-03T13:45:54;0.90;;;0.90;;
10096;SDS011;5087;42.662;23.466;2022-09-03T13:48:29;0.90;;;0.90;;
10096;SDS011;5087;42.662;23.466;2022-09-03T13:51:21;0.87;;;0.87;;
10096;SDS011;5087;42.662;23.466;2022-09-03T13:54:02;0.70;;;0.70;;
10096;SDS011;5087;42.662;23.466;2022-09-03T13:56:42;0.80;;;0.80;;
10096;SDS011;5087;42.662;23.466;2022-09-03T13:59:17;0.80;;;0.80;;
10096;SDS011;5087;42.662;23.466;2022-09-03T14:01:57;0.70;;;0.70;;
10096;SDS011;5087;42.662;23.466;2022-09-03T14:04:41;0.60;;;0.60;;
10096;SDS011;5087;42.662;23.466;2022-09-03T14:07:23;0.70;;;0.70;;
10096;SDS011;5087;42.662;23.466;2022-09-03T14:09:57;0.60;;;0.60;;
10096;SDS011;5087;42.662;23.466;2022-09-03T14:12:36;0.60;;;0.60;;
10096;SDS011;5087;42.662;23.466;2022-09-03T14:15:15;0.77;;;0.77;;
10096;SDS011;5087;42.662;23.466;2022-09-03T14:17:45;0.70;;;0.70;;
10096;SDS011;5087;42.662;23.466;2022-09-03T14:20:19;0.90;;;0.90;;
10096;SDS011;5087;42.662;23.466;2022-09-03T14:22:51;0.80;;;0.80;;
10096;SDS011;5087;42.662;23.466;2022-09-03T14:25:22;1.47;;;1.47;;
10096;SDS011;5087;42.662;23.466;2022-09-03T14:27:51;0.77;;;0.77;;
10096;SDS011;5087;42.662;23.466;2022-09-03T14:30:30;0.80;;;0.80;;
10096;SDS011;5087;42.662;23.466;2022-09-03T14:33:09;0.80;;;0.80;;
10096;SDS011;5087;42.662;23.466;2022-09-03T14:35:50;0.90;;;0.90;;
10096;SDS011;5087;42.662;23.466;2022-09-03T14:38:45;0.80;;;0.80;;
10096;SDS011;5087;42.662;23.466;2022-09-03T14:47:26;0.70;;;0.70;;
10096;SDS011;5087;42.662;23.466;2022-09-03T14:50:13;0.77;;;0.77;;
10096;SDS011;5087;42.662;23.466;2022-09-03T14:52:58;0.70;;;0.70;;
10096;SDS011;5087;42.662;23.466;2022-09-03T14:58:42;0.70;;;0.70;;
10096;SDS011;5087;42.662;23.466;2022-09-03T15:01:26;0.63;;;0.63;;
10096;SDS011;5087;42.662;23.466;2022-09-03T15:04:08;0.60;;;0.60;;
10096;SDS011;5087;42.662;23.466;2022-09-03T15:06:55;0.60;;;0.60;;
10096;SDS011;5087;42.662;23.466;2022-09-03T15:09:51;0.80;;;0.80;;
10096;SDS011;5087;42.662;23.466;2022-09-03T15:12:29;0.60;;;0.60;;
10096;SDS011;5087;42.662;23.466;2022-09-03T15:15:04;0.70;;;0.70;;
10096;SDS011;5087;42.662;23.466;2022-09-03T15:17:52;0.70;;;0.70;;
10096;SDS011;5087;42.662;23.466;2022-09-03T15:20:28;0.60;;;0.60;;
10096;SDS011;5087;42.662;23.466;2022-09-03T15:23:08;0.60;;;0.60;;
10096;SDS011;5087;42.662;23.466;2022-09-03T15:25:48;0.60;;;0.60;;
10096;SDS011;5087;42.662;23.466;2022-09-03T15:28:48;0.70;;;0.70;;
10096;SDS011;5087;42.662;23.466;2022-09-03T15:31:24;0.70;;;0.70;;
10096;SDS011;5087;42.662;23.466;2022-09-03T15:34:00;0.60;;;0.60;;
10096;SDS011;5087;42.662;23.466;2022-09-03T15:36:40;0.60;;;0.60;;
10096;SDS011;5087;42.662;23.466;2022-09-03T15:39:15;0.70;;;0.70;;
10096;SDS011;5087;42.662;23.466;2022-09-03T15:41:51;0.70;;;0.70;;
10096;SDS011;5087;42.662;23.466;2022-09-03T15:44:22;1.77;;;1.77;;